Time;durP1;ratioP1;P1;durP2;ratioP2;P2;SDS_P1;SDS_P2;PMS_P1;PMS_P2;Temp;Humidity;BMP_temperature;BMP_pressure;BME280_temperature;BME280_humidity;BME280_pressure;Samples;Min_cycle;Max_cycle;Signal;HPM_P1;HPM_P2
2022/05/02 00:00:04;;;;;;;18.90;11.40;;;;;;;;;;5063293;28;20180;-66
2022/05/02 00:02:29;;;;;;;18.30;11.33;;;;;;;;;;5061144;28;20329;-66
2022/05/02 00:04:55;;;;;;;18.80;11.47;;;;;;;;;;5058635;28;20256;-66
2022/05/02 00:07:20;;;;;;;24.47;11.73;;;;;;;;;;5067624;28;20598;-66
2022/05/02 00:09:45;;;;;;;19.40;11.40;;;;;;;;;;5060020;28;20181;-66
2022/05/02 00:12:11;;;;;;;22.30;11.70;;;;;;;;;;5070120;28;20189;-66
2022/05/02 00:14:36;;;;;;;17.33;10.60;;;;;;;;;;5069943;28;20181;-66
2022/05/02 00:17:02;;;;;;;17.07;11.37;;;;;;;;;;5063183;28;20176;-66
2022/05/02 00:19:27;;;;;;;19.53;10.90;;;;;;;;;;5070052;28;20530;-66
2022/05/02 00:21:52;;;;;;;17.17;11.53;;;;;;;;;;5064820;28;20272;-66
2022/05/02 00:24:18;;;;;;;18.13;11.07;;;;;;;;;;5067341;28;20748;-66
2022/05/02 00:26:43;;;;;;;17.97;11.37;;;;;;;;;;5066257;28;20199;-66
2022/05/02 00:29:09;;;;;;;20.30;11.00;;;;;;;;;;5068066;28;20252;-66
2022/05/02 00:31:34;;;;;;;18.57;11.53;;;;;;;;;;5065747;28;20201;-66
2022/05/02 00:34:00;;;;;;;19.13;11.30;;;;;;;;;;5059305;28;20492;-66
2022/05/02 00:36:26;;;;;;;17.33;11.40;;;;;;;;;;5064518;28;20189;-66
2022/05/02 00:38:51;;;;;;;19.10;11.47;;;;;;;;;;5069173;28;20642;-66
2022/05/02 00:41:17;;;;;;;18.73;10.97;;;;;;;;;;5063935;28;20173;-66
2022/05/02 00:43:43;;;;;;;20.23;11.50;;;;;;;;;;5066111;28;20245;-66
2022/05/02 00:46:25;;;;;;;21.10;11.27;;;;;;;;;;5067953;28;20188;-65
2022/05/02 00:48:51;;;;;;;24.63;11.03;;;;;;;;;;5057271;28;20177;-65
2022/05/02 00:51:18;;;;;;;17.10;11.00;;;;;;;;;;5060116;28;20172;-65
2022/05/02 00:53:46;;;;;;;20.47;11.93;;;;;;;;;;5060960;28;20548;-66
2022/05/02 00:56:12;;;;;;;20.27;11.87;;;;;;;;;;5067584;28;20185;-65
2022/05/02 00:58:37;;;;;;;19.83;12.23;;;;;;;;;;5060383;28;20652;-66
2022/05/02 01:01:06;;;;;;;19.10;11.53;;;;;;;;;;5066315;28;20370;-66
2022/05/02 01:03:34;;;;;;;20.83;11.73;;;;;;;;;;5066912;28;20212;-66
2022/05/02 01:08:43;;;;;;;18.77;11.33;;;;;;;;;;5059157;28;20204;-66
2022/05/02 01:11:09;;;;;;;18.23;11.00;;;;;;;;;;5067013;28;20513;-66
2022/05/02 01:13:36;;;;;;;18.47;11.20;;;;;;;;;;5067424;28;20454;-66
2022/05/02 01:16:26;;;;;;;18.20;11.50;;;;;;;;;;5069096;28;20606;-66
2022/05/02 01:18:54;;;;;;;17.97;10.57;;;;;;;;;;5066547;28;20181;-66
2022/05/02 01:21:22;;;;;;;19.53;11.10;;;;;;;;;;5068006;28;20208;-66
2022/05/02 01:23:50;;;;;;;22.23;11.63;;;;;;;;;;5059520;28;20201;-66
2022/05/02 01:26:15;;;;;;;16.93;10.93;;;;;;;;;;5064460;28;20260;-65
2022/05/02 01:28:46;;;;;;;18.03;12.07;;;;;;;;;;5065797;28;20256;-65
2022/05/02 01:31:13;;;;;;;20.17;12.13;;;;;;;;;;5063345;28;20209;-66
2022/05/02 01:33:39;;;;;;;18.13;12.03;;;;;;;;;;5063122;28;20632;-66
2022/05/02 01:36:04;;;;;;;19.20;12.50;;;;;;;;;;5065373;28;20223;-66
2022/05/02 01:38:30;;;;;;;17.90;11.53;;;;;;;;;;5062504;28;20252;-66
2022/05/02 01:40:55;;;;;;;22.83;12.57;;;;;;;;;;5066783;28;20666;-66
2022/05/02 01:43:20;;;;;;;19.27;11.73;;;;;;;;;;5064579;28;20641;-65
2022/05/02 01:45:46;;;;;;;19.17;11.87;;;;;;;;;;5063219;28;20188;-65
2022/05/02 01:48:11;;;;;;;18.33;11.43;;;;;;;;;;5068467;28;20323;-66
2022/05/02 01:50:37;;;;;;;21.07;12.70;;;;;;;;;;5065618;28;20359;-65
2022/05/02 01:53:02;;;;;;;20.90;12.80;;;;;;;;;;5062080;28;20188;-66
2022/05/02 01:55:28;;;;;;;19.13;11.77;;;;;;;;;;5065936;28;20200;-66
2022/05/02 01:57:53;;;;;;;24.80;11.97;;;;;;;;;;5062730;28;20193;-66
2022/05/02 02:00:18;;;;;;;19.50;11.70;;;;;;;;;;5067190;28;20323;-66
2022/05/02 02:02:44;;;;;;;20.80;12.13;;;;;;;;;;5064398;28;20231;-66
2022/05/02 02:07:53;;;;;;;16.07;11.17;;;;;;;;;;5063082;28;21034;-66
2022/05/02 02:10:18;;;;;;;18.83;12.20;;;;;;;;;;5064701;28;20212;-66
2022/05/02 02:12:44;;;;;;;20.30;12.10;;;;;;;;;;5062816;28;20265;-65
2022/05/02 02:15:14;;;;;;;23.90;11.70;;;;;;;;;;5060482;28;20189;-67
2022/05/02 02:17:42;;;;;;;19.53;12.17;;;;;;;;;;5066117;28;20193;-65
2022/05/02 02:20:09;;;;;;;20.93;11.80;;;;;;;;;;5064314;28;20607;-66
2022/05/02 02:22:35;;;;;;;19.87;11.97;;;;;;;;;;5064988;28;20191;-66
2022/05/02 02:25:01;;;;;;;20.63;12.33;;;;;;;;;;5066990;28;20181;-66
2022/05/02 02:27:27;;;;;;;18.03;11.70;;;;;;;;;;5064440;28;20727;-66
2022/05/02 02:29:52;;;;;;;20.53;12.27;;;;;;;;;;5062930;28;20185;-67
2022/05/02 02:32:18;;;;;;;19.23;12.00;;;;;;;;;;5063903;28;20546;-66
2022/05/02 02:34:43;;;;;;;20.70;12.17;;;;;;;;;;5058607;28;20180;-66
2022/05/02 02:37:08;;;;;;;21.57;12.13;;;;;;;;;;5064857;28;20546;-66
2022/05/02 02:39:34;;;;;;;21.07;12.07;;;;;;;;;;5063428;28;20258;-65
2022/05/02 02:41:59;;;;;;;23.20;12.30;;;;;;;;;;5057208;28;20177;-65
2022/05/02 02:44:24;;;;;;;25.43;12.40;;;;;;;;;;5061091;28;20673;-65
2022/05/02 02:46:50;;;;;;;21.37;12.17;;;;;;;;;;5064209;28;20212;-66
2022/05/02 02:49:15;;;;;;;19.43;11.33;;;;;;;;;;5056568;28;20188;-66
2022/05/02 02:51:40;;;;;;;19.37;11.57;;;;;;;;;;5063667;28;20600;-66
2022/05/02 02:54:06;;;;;;;22.27;11.53;;;;;;;;;;5065200;28;20188;-66
2022/05/02 02:56:31;;;;;;;19.23;12.13;;;;;;;;;;5065552;28;20184;-67
2022/05/02 02:58:56;;;;;;;19.67;12.07;;;;;;;;;;5078195;28;20196;-66
2022/05/02 03:01:22;;;;;;;20.47;11.73;;;;;;;;;;5065592;28;20187;-66
2022/05/02 03:03:47;;;;;;;20.37;12.10;;;;;;;;;;5059472;28;20244;-66
2022/05/02 03:06:13;;;;;;;20.33;12.33;;;;;;;;;;5052749;28;20181;-65
2022/05/02 03:08:40;;;;;;;22.63;12.47;;;;;;;;;;5058766;28;20220;-65
2022/05/02 03:11:06;;;;;;;17.40;11.20;;;;;;;;;;5061996;28;20177;-65
2022/05/02 03:13:33;;;;;;;18.40;11.20;;;;;;;;;;5065242;28;20540;-65
2022/05/02 03:15:58;;;;;;;18.30;11.80;;;;;;;;;;5059860;28;20184;-65
2022/05/02 03:18:24;;;;;;;20.23;11.63;;;;;;;;;;5064680;28;20253;-66
2022/05/02 03:20:49;;;;;;;20.27;12.13;;;;;;;;;;5065800;28;20277;-66
2022/05/02 03:23:15;;;;;;;20.43;11.80;;;;;;;;;;5058974;28;20581;-66
2022/05/02 03:25:40;;;;;;;18.07;11.67;;;;;;;;;;5066699;28;20189;-66
2022/05/02 03:28:06;;;;;;;22.77;12.63;;;;;;;;;;5060148;28;20178;-66
2022/05/02 03:30:31;;;;;;;24.97;12.90;;;;;;;;;;5067556;28;20177;-66
2022/05/02 03:32:57;;;;;;;18.97;11.63;;;;;;;;;;5059186;28;20192;-66
2022/05/02 03:35:22;;;;;;;23.70;12.17;;;;;;;;;;5060025;28;20217;-66
2022/05/02 03:37:48;;;;;;;23.37;13.10;;;;;;;;;;5058946;28;20192;-65
2022/05/02 03:40:13;;;;;;;23.53;13.30;;;;;;;;;;5063220;28;20191;-65
2022/05/02 03:42:38;;;;;;;21.73;12.57;;;;;;;;;;5058721;28;20189;-65
2022/05/02 03:45:06;;;;;;;21.17;12.70;;;;;;;;;;5058924;28;20204;-65
2022/05/02 03:47:31;;;;;;;21.87;13.07;;;;;;;;;;5059590;28;20630;-65
2022/05/02 03:49:57;;;;;;;22.40;13.50;;;;;;;;;;5057364;28;20177;-65
2022/05/02 03:52:22;;;;;;;23.60;13.03;;;;;;;;;;5065976;28;20200;-65
2022/05/02 03:54:47;;;;;;;21.80;12.90;;;;;;;;;;5053951;28;20169;-65
2022/05/02 03:57:13;;;;;;;22.90;13.77;;;;;;;;;;5052679;28;20203;-65
2022/05/02 03:59:38;;;;;;;23.67;12.90;;;;;;;;;;5062704;28;20264;-66
2022/05/02 04:02:04;;;;;;;22.33;13.03;;;;;;;;;;5062658;28;20268;-65
2022/05/02 04:04:29;;;;;;;23.53;14.57;;;;;;;;;;5062941;28;20251;-65
2022/05/02 04:06:54;;;;;;;22.97;14.00;;;;;;;;;;5066898;28;20250;-66
2022/05/02 04:09:20;;;;;;;28.43;14.90;;;;;;;;;;5052163;28;20244;-66
2022/05/02 04:11:45;;;;;;;21.07;12.77;;;;;;;;;;5066562;28;20177;-66
2022/05/02 04:14:11;;;;;;;22.70;13.30;;;;;;;;;;5055512;28;20512;-66
2022/05/02 04:16:36;;;;;;;21.03;13.23;;;;;;;;;;5065131;28;20263;-66
2022/05/02 04:19:03;;;;;;;20.23;13.50;;;;;;;;;;5054909;28;20209;-65
2022/05/02 04:21:29;;;;;;;22.50;13.77;;;;;;;;;;5057888;28;20177;-66
2022/05/02 04:23:54;;;;;;;23.77;13.00;;;;;;;;;;5060565;28;20258;-66
2022/05/02 04:26:19;;;;;;;23.37;12.83;;;;;;;;;;5061114;28;20706;-66
2022/05/02 04:28:45;;;;;;;20.90;13.13;;;;;;;;;;5059233;28;20181;-66
2022/05/02 04:31:10;;;;;;;19.50;12.67;;;;;;;;;;5060087;28;20201;-66
2022/05/02 04:33:35;;;;;;;22.03;13.53;;;;;;;;;;5063248;28;20624;-66
2022/05/02 04:36:01;;;;;;;21.70;13.00;;;;;;;;;;5064564;28;20373;-66
2022/05/02 04:38:28;;;;;;;22.47;12.67;;;;;;;;;;5061850;28;20207;-66
2022/05/02 04:40:55;;;;;;;21.70;13.00;;;;;;;;;;5064416;28;20442;-66
2022/05/02 04:43:20;;;;;;;18.67;12.27;;;;;;;;;;5067145;28;20280;-65
2022/05/02 04:45:46;;;;;;;22.17;13.03;;;;;;;;;;5068619;28;20259;-65
2022/05/02 04:48:11;;;;;;;21.13;12.70;;;;;;;;;;5060679;28;20713;-65
2022/05/02 04:50:36;;;;;;;20.83;12.83;;;;;;;;;;5057773;28;20181;-65
2022/05/02 04:53:02;;;;;;;22.27;13.13;;;;;;;;;;5053879;28;20319;-65
2022/05/02 04:55:27;;;;;;;22.20;13.60;;;;;;;;;;5069511;28;20333;-65
2022/05/02 04:57:52;;;;;;;21.20;13.03;;;;;;;;;;5068367;28;20592;-65
2022/05/02 05:00:18;;;;;;;23.33;14.00;;;;;;;;;;5060005;28;20667;-65
2022/05/02 05:02:43;;;;;;;24.57;14.77;;;;;;;;;;5065299;28;20193;-65
2022/05/02 05:05:09;;;;;;;20.93;13.70;;;;;;;;;;5060148;28;20285;-65
2022/05/02 05:07:38;;;;;;;21.43;14.33;;;;;;;;;;5066186;28;20229;-65
2022/05/02 05:10:06;;;;;;;26.37;13.87;;;;;;;;;;5067130;28;20177;-65
2022/05/02 05:12:50;;;;;;;22.93;13.27;;;;;;;;;;5068602;28;20188;-65
2022/05/02 05:18:49;;;;;;;23.27;13.13;;;;;;;;;;5066263;28;20189;-66
2022/05/02 05:21:17;;;;;;;19.50;13.50;;;;;;;;;;5063491;28;20188;-66
2022/05/02 05:24:01;;;;;;;24.67;14.33;;;;;;;;;;5066745;28;20292;-65
2022/05/02 05:26:35;;;;;;;22.87;14.53;;;;;;;;;;5064752;28;20195;-66
2022/05/02 05:29:12;;;;;;;20.83;13.97;;;;;;;;;;5065228;28;20330;-66
2022/05/02 05:31:40;;;;;;;19.97;13.30;;;;;;;;;;5063282;28;20249;-66
2022/05/02 05:34:19;;;;;;;21.63;12.77;;;;;;;;;;5063826;28;20215;-66
2022/05/02 05:37:00;;;;;;;24.07;13.50;;;;;;;;;;5064709;28;20200;-66
2022/05/02 05:39:44;;;;;;;20.93;13.10;;;;;;;;;;5063612;28;20177;-66
2022/05/02 05:42:37;;;;;;;22.27;12.07;;;;;;;;;;5067309;28;20695;-66
2022/05/02 05:45:04;;;;;;;18.43;13.07;;;;;;;;;;5066037;28;20640;-66
2022/05/02 05:47:53;;;;;;;18.90;12.90;;;;;;;;;;5064458;28;20193;-66
2022/05/02 05:50:31;;;;;;;21.20;13.47;;;;;;;;;;5066275;28;20172;-65
2022/05/02 05:53:18;;;;;;;18.27;12.27;;;;;;;;;;5058179;28;20658;-65
2022/05/02 05:56:08;;;;;;;21.50;13.40;;;;;;;;;;5065343;28;20188;-65
2022/05/02 05:59:06;;;;;;;16.83;12.40;;;;;;;;;;5062275;28;20185;-65
2022/05/02 06:01:32;;;;;;;22.73;13.73;;;;;;;;;;5067941;28;20609;-65
2022/05/02 06:04:07;;;;;;;21.08;12.50;;;;;;;;;;5065245;28;20312;-66
2022/05/02 06:06:35;;;;;;;23.23;13.40;;;;;;;;;;5066211;28;20269;-66
2022/05/02 06:09:01;;;;;;;20.70;13.40;;;;;;;;;;5065535;28;20236;-66
2022/05/02 06:11:27;;;;;;;20.03;13.20;;;;;;;;;;5066823;28;20196;-66
2022/05/02 06:13:54;;;;;;;22.60;12.93;;;;;;;;;;5065510;28;20252;-66
2022/05/02 06:19:25;;;;;;;19.98;12.70;;;;;;;;;;5063005;28;20192;-66
2022/05/02 06:21:53;;;;;;;18.67;12.10;;;;;;;;;;5062758;28;20641;-66
2022/05/02 06:24:18;;;;;;;17.75;12.02;;;;;;;;;;5061884;28;20193;-66
2022/05/02 06:26:46;;;;;;;17.98;12.35;;;;;;;;;;5065505;28;20203;-66
2022/05/02 06:29:12;;;;;;;21.38;13.20;;;;;;;;;;5065036;28;20177;-66
2022/05/02 06:31:45;;;;;;;21.75;12.50;;;;;;;;;;5065215;28;20192;-66
2022/05/02 06:34:12;;;;;;;24.00;12.82;;;;;;;;;;5061090;28;20177;-66
2022/05/02 06:37:08;;;;;;;19.75;12.27;;;;;;;;;;5063720;28;20184;-67
2022/05/02 06:39:59;;;;;;;19.90;12.73;;;;;;;;;;5064123;28;20181;-66
2022/05/02 06:42:39;;;;;;;18.70;11.75;;;;;;;;;;5062517;28;20180;-66
2022/05/02 06:45:43;;;;;;;17.08;11.75;;;;;;;;;;5063994;28;20271;-67
2022/05/02 06:48:25;;;;;;;18.73;11.20;;;;;;;;;;5063955;28;20185;-67
2022/05/02 06:50:59;;;;;;;18.92;11.60;;;;;;;;;;5062328;28;20558;-67
2022/05/02 06:53:39;;;;;;;20.73;12.00;;;;;;;;;;5062875;28;20176;-66
2022/05/02 06:56:35;;;;;;;19.70;11.13;;;;;;;;;;5066512;28;20184;-66
2022/05/02 06:59:21;;;;;;;17.15;11.18;;;;;;;;;;5065613;28;20647;-66
2022/05/02 07:02:12;;;;;;;18.27;11.00;;;;;;;;;;5065069;28;20263;-67
2022/05/02 07:04:53;;;;;;;18.60;10.90;;;;;;;;;;5065433;28;20403;-66
2022/05/02 07:07:25;;;;;;;24.13;11.65;;;;;;;;;;5063485;28;20247;-67
2022/05/02 07:09:52;;;;;;;18.33;10.65;;;;;;;;;;5064507;28;20199;-67
2022/05/02 07:12:25;;;;;;;16.75;10.60;;;;;;;;;;5065099;28;20176;-67
2022/05/02 07:15:17;;;;;;;17.48;10.73;;;;;;;;;;5062154;28;20656;-66
2022/05/02 07:17:42;;;;;;;16.25;10.48;;;;;;;;;;5063390;28;20185;-67
2022/05/02 07:20:37;;;;;;;17.67;10.07;;;;;;;;;;5064396;28;20195;-67
2022/05/02 07:23:08;;;;;;;17.13;9.88;;;;;;;;;;5064443;28;20676;-67
2022/05/02 07:25:39;;;;;;;14.23;10.13;;;;;;;;;;5065378;28;20753;-67
2022/05/02 07:28:24;;;;;;;15.18;10.13;;;;;;;;;;5061527;28;20191;-67
2022/05/02 07:30:55;;;;;;;16.58;9.60;;;;;;;;;;5058665;28;20279;-67
2022/05/02 07:33:20;;;;;;;16.23;9.80;;;;;;;;;;5064787;28;20201;-67
2022/05/02 07:35:49;;;;;;;14.60;8.98;;;;;;;;;;5063537;28;20216;-67
2022/05/02 07:38:18;;;;;;;14.35;9.10;;;;;;;;;;5065934;28;20230;-67
2022/05/02 07:41:22;;;;;;;16.20;8.50;;;;;;;;;;5066473;28;20204;-67
2022/05/02 07:43:33;;;;;;;10.88;7.97;;;;;;;;;;5064681;28;20297;-66
2022/05/02 07:46:02;;;;;;;14.02;8.15;;;;;;;;;;5077021;28;20261;-67
2022/05/02 07:48:30;;;;;;;12.70;8.43;;;;;;;;;;5061695;28;20181;-66
2022/05/02 07:50:57;;;;;;;12.70;7.55;;;;;;;;;;5062052;28;20218;-66
2022/05/02 07:53:25;;;;;;;11.25;7.75;;;;;;;;;;5063263;28;20396;-66
2022/05/02 07:55:52;;;;;;;11.68;7.63;;;;;;;;;;5060321;28;20952;-66
2022/05/02 07:58:19;;;;;;;9.02;6.57;;;;;;;;;;5062700;28;20263;-66
2022/05/02 08:00:44;;;;;;;9.77;6.40;;;;;;;;;;5058067;28;20889;-66
2022/05/02 08:03:12;;;;;;;12.00;7.45;;;;;;;;;;5062241;28;20239;-66
2022/05/02 08:05:44;;;;;;;10.25;6.55;;;;;;;;;;5065244;28;20256;-67
2022/05/02 08:08:22;;;;;;;9.98;6.20;;;;;;;;;;5063796;28;20717;-67
2022/05/02 08:11:26;;;;;;;9.32;6.05;;;;;;;;;;5061078;28;20177;-67
2022/05/02 08:14:06;;;;;;;10.20;6.03;;;;;;;;;;5067109;28;20175;-67
2022/05/02 08:16:34;;;;;;;9.63;5.38;;;;;;;;;;5067064;28;20181;-67
2022/05/02 08:19:08;;;;;;;8.57;6.03;;;;;;;;;;5069531;28;20208;-66
2022/05/02 08:21:49;;;;;;;9.50;6.45;;;;;;;;;;5068378;28;20662;-66
2022/05/02 08:27:22;;;;;;;10.00;6.35;;;;;;;;;;5061596;28;20200;-66
2022/05/02 08:29:48;;;;;;;8.98;5.70;;;;;;;;;;5067113;28;20186;-65
2022/05/02 08:32:41;;;;;;;9.25;6.32;;;;;;;;;;5067650;28;20566;-66
2022/05/02 08:35:33;;;;;;;10.73;6.45;;;;;;;;;;5065349;28;20196;-66
2022/05/02 08:38:24;;;;;;;9.90;6.10;;;;;;;;;;5061810;28;20200;-66
2022/05/02 08:41:18;;;;;;;8.43;5.72;;;;;;;;;;5064061;28;20196;-66
2022/05/02 08:44:08;;;;;;;9.23;6.35;;;;;;;;;;5066189;28;20201;-67
2022/05/02 08:47:11;;;;;;;7.88;5.95;;;;;;;;;;5065816;28;20181;-66
2022/05/02 08:49:52;;;;;;;10.60;5.93;;;;;;;;;;5063615;28;20184;-66
2022/05/02 08:52:32;;;;;;;10.88;5.93;;;;;;;;;;5062368;28;20195;-66
2022/05/02 08:55:20;;;;;;;8.95;5.63;;;;;;;;;;5067981;28;20288;-66
2022/05/02 08:57:53;;;;;;;8.27;5.80;;;;;;;;;;5065903;28;20188;-66
2022/05/02 09:00:41;;;;;;;11.30;6.03;;;;;;;;;;5065280;28;20560;-66
2022/05/02 09:03:35;;;;;;;8.95;5.85;;;;;;;;;;5065365;28;20267;-66
2022/05/02 09:06:41;;;;;;;9.55;6.70;;;;;;;;;;5065734;28;20188;-66
2022/05/02 09:09:28;;;;;;;10.05;6.40;;;;;;;;;;5065496;28;20220;-67
2022/05/02 09:12:21;;;;;;;10.18;7.03;;;;;;;;;;5063741;28;20181;-66
2022/05/02 09:14:55;;;;;;;11.68;6.78;;;;;;;;;;5066036;28;20209;-67
2022/05/02 09:17:39;;;;;;;10.05;7.40;;;;;;;;;;5068084;28;20655;-67
2022/05/02 09:20:42;;;;;;;10.95;6.55;;;;;;;;;;5066730;28;20196;-66
2022/05/02 09:23:26;;;;;;;9.88;6.68;;;;;;;;;;5066047;28;20212;-67
2022/05/02 09:26:04;;;;;;;11.57;8.15;;;;;;;;;;5064062;28;20181;-66
2022/05/02 09:28:56;;;;;;;12.32;7.38;;;;;;;;;;5066956;28;20662;-66
2022/05/02 09:31:44;;;;;;;10.18;7.20;;;;;;;;;;5033554;28;20592;-66
2022/05/02 09:34:17;;;;;;;12.77;8.05;;;;;;;;;;5065559;28;20228;-67
2022/05/02 09:36:54;;;;;;;11.30;7.18;;;;;;;;;;5067493;28;20177;-66
2022/05/02 09:39:24;;;;;;;10.27;7.47;;;;;;;;;;5065197;28;20425;-66
2022/05/02 09:42:24;;;;;;;12.15;7.82;;;;;;;;;;5059199;28;20213;-67
2022/05/02 09:51:50;;;;;;;11.48;8.15;;;;;;;;;;5061670;28;20533;-67
2022/05/02 09:57:22;;;;;;;14.48;8.50;;;;;;;;;;5064425;28;20224;-70
2022/05/02 10:01:06;;;;;;;11.90;7.88;;;;;;;;;;5066679;28;20173;-66
2022/05/02 10:02:45;;;;;;;13.50;7.78;;;;;;;;;;5065175;28;20205;-67
2022/05/02 10:05:26;;;;;;;13.88;8.43;;;;;;;;;;5057465;28;20185;-67
2022/05/02 10:08:30;;;;;;;11.35;7.93;;;;;;;;;;5065871;28;20654;-66
2022/05/02 10:11:20;;;;;;;11.07;8.18;;;;;;;;;;5058776;28;20200;-66
2022/05/02 10:14:13;;;;;;;12.07;8.48;;;;;;;;;;5064530;28;20630;-66
2022/05/02 10:16:50;;;;;;;12.73;8.07;;;;;;;;;;5064495;28;20218;-67
2022/05/02 10:19:46;;;;;;;10.63;7.63;;;;;;;;;;5064377;28;20192;-67
2022/05/02 10:22:34;;;;;;;12.93;7.72;;;;;;;;;;5066929;28;20180;-66
2022/05/02 10:25:32;;;;;;;12.50;8.27;;;;;;;;;;5063361;28;20215;-67
2022/05/02 10:28:25;;;;;;;13.98;8.75;;;;;;;;;;5066170;28;20181;-68
2022/05/02 10:31:04;;;;;;;15.02;8.10;;;;;;;;;;5065172;28;20612;-67
2022/05/02 10:33:34;;;;;;;13.07;8.25;;;;;;;;;;5067182;28;20195;-66
2022/05/02 10:36:03;;;;;;;13.07;7.68;;;;;;;;;;5063049;28;20189;-66
2022/05/02 10:38:30;;;;;;;12.23;8.65;;;;;;;;;;5067188;28;20266;-66
2022/05/02 10:41:15;;;;;;;11.43;8.38;;;;;;;;;;5065048;28;20180;-67
2022/05/02 10:43:48;;;;;;;12.27;8.55;;;;;;;;;;5062253;28;20286;-67
2022/05/02 10:46:14;;;;;;;13.38;8.75;;;;;;;;;;5061345;28;20184;-67
2022/05/02 10:48:49;;;;;;;12.27;8.75;;;;;;;;;;5062875;28;20589;-66
2022/05/02 10:51:40;;;;;;;14.10;8.32;;;;;;;;;;5062899;28;20184;-67
2022/05/02 10:54:42;;;;;;;11.02;8.82;;;;;;;;;;5064412;28;20902;-67
2022/05/02 10:57:40;;;;;;;11.93;8.43;;;;;;;;;;5038255;28;20204;-67
2022/05/02 11:00:10;;;;;;;13.45;9.25;;;;;;;;;;5064095;28;20449;-66
2022/05/02 11:02:49;;;;;;;17.42;8.55;;;;;;;;;;5063719;28;20579;-66
2022/05/02 11:05:16;;;;;;;14.13;8.93;;;;;;;;;;5062738;28;20184;-67
2022/05/02 11:07:41;;;;;;;12.95;9.05;;;;;;;;;;5064242;28;20277;-67
2022/05/02 11:10:11;;;;;;;12.57;7.90;;;;;;;;;;5066376;28;20184;-67
2022/05/02 11:12:44;;;;;;;12.43;8.90;;;;;;;;;;5060146;28;20244;-67
2022/05/02 11:15:13;;;;;;;11.77;8.73;;;;;;;;;;5063723;28;20184;-66
2022/05/02 11:21:43;;;;;;;11.73;9.55;;;;;;;;;;5003673;28;20193;-65
2022/05/02 11:24:31;;;;;;;11.25;8.82;;;;;;;;;;5065733;28;20627;-66
2022/05/02 11:27:14;;;;;;;11.45;8.50;;;;;;;;;;5061677;28;20828;-67
2022/05/02 11:29:56;;;;;;;11.68;8.50;;;;;;;;;;5066820;28;20187;-66
2022/05/02 11:32:37;;;;;;;15.52;8.93;;;;;;;;;;5064145;28;20277;-67
2022/05/02 11:35:09;;;;;;;13.68;8.02;;;;;;;;;;5066075;28;20184;-67
2022/05/02 11:37:42;;;;;;;13.70;8.40;;;;;;;;;;5065066;28;20636;-66
2022/05/02 11:40:10;;;;;;;17.75;8.50;;;;;;;;;;5065934;28;20185;-67
2022/05/02 11:42:42;;;;;;;12.88;8.70;;;;;;;;;;5067561;28;20283;-67
2022/05/02 11:45:13;;;;;;;12.95;8.23;;;;;;;;;;5062225;28;20196;-67
2022/05/02 11:47:45;;;;;;;11.82;8.07;;;;;;;;;;5064167;28;20523;-67
2022/05/02 11:50:10;;;;;;;12.32;8.02;;;;;;;;;;5070855;28;20192;-66
2022/05/02 11:52:38;;;;;;;11.07;8.70;;;;;;;;;;5069590;28;20230;-66
2022/05/02 11:55:07;;;;;;;12.05;8.13;;;;;;;;;;5071613;28;20181;-66
2022/05/02 11:57:44;;;;;;;12.40;8.35;;;;;;;;;;5059434;28;20562;-66
2022/05/02 12:00:11;;;;;;;12.55;9.15;;;;;;;;;;5062437;28;20172;-67
2022/05/02 12:02:37;;;;;;;14.23;9.20;;;;;;;;;;5067514;28;20256;-67
2022/05/02 12:05:46;;;;;;;11.90;7.97;;;;;;;;;;5071158;28;20203;-67
2022/05/02 12:08:31;;;;;;;10.65;8.65;;;;;;;;;;5067837;28;20600;-67
2022/05/02 12:11:08;;;;;;;11.85;7.85;;;;;;;;;;5065292;28;20668;-67
2022/05/02 12:13:38;;;;;;;12.35;9.20;;;;;;;;;;4364561;28;10000900;-67
2022/05/02 12:16:08;;;;;;;11.27;8.55;;;;;;;;;;5066136;28;20267;-67
2022/05/02 12:18:45;;;;;;;9.75;8.23;;;;;;;;;;5062959;28;20185;-68
2022/05/02 12:21:24;;;;;;;11.32;8.07;;;;;;;;;;5064351;28;20234;-65
2022/05/02 12:23:52;;;;;;;11.35;8.18;;;;;;;;;;5063352;28;20200;-66
2022/05/02 12:26:23;;;;;;;11.65;8.90;;;;;;;;;;5076319;28;20184;-66
2022/05/02 12:28:51;;;;;;;11.65;8.27;;;;;;;;;;5063021;28;20184;-66
2022/05/02 12:31:30;;;;;;;13.38;8.55;;;;;;;;;;5062396;28;20287;-66
2022/05/02 12:34:07;;;;;;;11.88;8.32;;;;;;;;;;5065715;28;20257;-66
2022/05/02 12:36:44;;;;;;;12.70;8.35;;;;;;;;;;5064299;28;20659;-66
2022/05/02 12:39:17;;;;;;;11.07;7.97;;;;;;;;;;5066142;28;20184;-66
2022/05/02 12:41:50;;;;;;;11.57;8.13;;;;;;;;;;5064743;28;20266;-66
2022/05/02 12:44:18;;;;;;;13.40;7.93;;;;;;;;;;5065140;28;20261;-66
2022/05/02 12:46:46;;;;;;;11.20;7.75;;;;;;;;;;5061163;28;20184;-66
2022/05/02 12:49:20;;;;;;;10.70;8.38;;;;;;;;;;5065185;28;20184;-66
2022/05/02 12:51:51;;;;;;;12.70;8.00;;;;;;;;;;5066342;28;20172;-66
2022/05/02 12:54:17;;;;;;;11.35;8.13;;;;;;;;;;5056554;28;20586;-66
2022/05/02 13:00:30;;;;;;;10.23;7.85;;;;;;;;;;5064386;28;20624;-66
2022/05/02 13:02:32;;;;;;;12.00;7.32;;;;;;;;;;5065053;28;20191;-67
2022/05/02 13:05:00;;;;;;;14.00;7.57;;;;;;;;;;5057980;28;20978;-66
2022/05/02 13:07:26;;;;;;;10.73;7.82;;;;;;;;;;5056758;28;20233;-66
2022/05/02 13:09:53;;;;;;;11.27;7.72;;;;;;;;;;5064593;28;20235;-67
2022/05/02 13:12:22;;;;;;;11.85;7.57;;;;;;;;;;5053511;28;20181;-66
2022/05/02 13:14:50;;;;;;;10.70;7.70;;;;;;;;;;5066332;28;20211;-66
2022/05/02 13:17:20;;;;;;;14.27;8.38;;;;;;;;;;5066717;28;20189;-67
2022/05/02 13:19:48;;;;;;;14.15;8.57;;;;;;;;;;5062737;28;20181;-66
2022/05/02 13:22:13;;;;;;;10.38;8.00;;;;;;;;;;5063597;28;20250;-66
2022/05/02 13:24:54;;;;;;;11.55;7.68;;;;;;;;;;5064251;28;20209;-67
2022/05/02 13:27:32;;;;;;;17.70;8.00;;;;;;;;;;5065731;28;20597;-67
2022/05/02 13:30:08;;;;;;;9.32;7.18;;;;;;;;;;5062698;28;20705;-67
2022/05/02 13:32:42;;;;;;;10.90;7.47;;;;;;;;;;5066628;28;20815;-67
2022/05/02 13:35:10;;;;;;;9.88;7.50;;;;;;;;;;5066250;28;20169;-67
2022/05/02 13:37:54;;;;;;;9.73;7.53;;;;;;;;;;5064596;28;20185;-67
2022/05/02 13:40:21;;;;;;;8.40;7.20;;;;;;;;;;5067764;28;20177;-66
2022/05/02 13:42:55;;;;;;;9.45;7.07;;;;;;;;;;5067026;28;20691;-67
2022/05/02 13:45:59;;;;;;;9.82;7.22;;;;;;;;;;5067787;28;20703;-67
2022/05/02 13:48:48;;;;;;;10.93;7.80;;;;;;;;;;4982097;28;20685;-66
2022/05/02 13:51:27;;;;;;;10.10;7.60;;;;;;;;;;5056804;28;20220;-67
2022/05/02 13:54:00;;;;;;;14.55;8.70;;;;;;;;;;5069180;28;20195;-66
2022/05/02 13:56:39;;;;;;;10.32;8.30;;;;;;;;;;5067725;28;20180;-66
2022/05/02 13:59:32;;;;;;;15.52;8.23;;;;;;;;;;5064175;28;20668;-66
2022/05/02 14:02:39;;;;;;;8.63;6.72;;;;;;;;;;5035572;28;20605;-66
2022/05/02 14:05:12;;;;;;;10.52;7.60;;;;;;;;;;5068306;28;20211;-66
2022/05/02 14:07:39;;;;;;;9.60;7.68;;;;;;;;;;5056187;28;20837;-66
2022/05/02 14:10:06;;;;;;;11.90;7.40;;;;;;;;;;5056454;28;20609;-67
2022/05/02 14:12:38;;;;;;;10.50;7.57;;;;;;;;;;5065979;28;20193;-67
2022/05/02 14:15:09;;;;;;;12.63;7.60;;;;;;;;;;5068069;28;20165;-67
2022/05/02 14:17:46;;;;;;;10.57;7.97;;;;;;;;;;5065618;28;20218;-67
2022/05/02 14:20:13;;;;;;;10.93;7.68;;;;;;;;;;5065873;28;20171;-67
2022/05/02 14:22:40;;;;;;;11.88;6.93;;;;;;;;;;5062626;28;20223;-67
2022/05/02 14:25:08;;;;;;;9.27;6.90;;;;;;;;;;5063418;28;20641;-67
2022/05/02 14:27:33;;;;;;;10.35;7.80;;;;;;;;;;5064908;28;20216;-72
2022/05/02 14:30:04;;;;;;;9.73;7.57;;;;;;;;;;5066361;28;20219;-75
2022/05/02 14:32:40;;;;;;;10.60;8.02;;;;;;;;;;5064090;28;20209;-67
2022/05/02 14:35:08;;;;;;;7.80;6.97;;;;;;;;;;5066821;28;20224;-67
2022/05/02 14:37:35;;;;;;;10.20;7.68;;;;;;;;;;5066434;28;20196;-68
2022/05/02 14:40:01;;;;;;;11.55;7.40;;;;;;;;;;5068439;28;20195;-67
2022/05/02 14:42:27;;;;;;;13.52;7.90;;;;;;;;;;5059498;28;20708;-68
2022/05/02 14:44:53;;;;;;;9.85;7.82;;;;;;;;;;5066886;28;20299;-67
2022/05/02 14:47:19;;;;;;;9.10;6.97;;;;;;;;;;5067257;28;20185;-67
2022/05/02 14:49:44;;;;;;;10.18;6.95;;;;;;;;;;5067316;28;20177;-67
2022/05/02 14:52:18;;;;;;;10.23;7.30;;;;;;;;;;5067460;28;20247;-68
2022/05/02 14:54:45;;;;;;;9.85;6.80;;;;;;;;;;5065897;28;20172;-68
2022/05/02 14:57:13;;;;;;;12.05;7.63;;;;;;;;;;5062705;28;20196;-68
2022/05/02 14:59:42;;;;;;;10.15;7.63;;;;;;;;;;5066571;28;20663;-68
2022/05/02 15:02:08;;;;;;;12.65;7.50;;;;;;;;;;5068565;28;20271;-68
2022/05/02 15:04:39;;;;;;;13.13;8.18;;;;;;;;;;5067566;28;20314;-68
2022/05/02 15:07:08;;;;;;;10.57;7.63;;;;;;;;;;5067286;28;20286;-68
2022/05/02 15:10:14;;;;;;;10.93;7.78;;;;;;;;;;5066615;28;20310;-68
2022/05/02 15:13:17;;;;;;;12.50;7.15;;;;;;;;;;5059999;28;20544;-68
2022/05/02 15:15:52;;;;;;;9.85;7.90;;;;;;;;;;5067108;28;20263;-67
2022/05/02 15:18:36;;;;;;;15.20;8.48;;;;;;;;;;5063887;28;21234;-67
2022/05/02 15:21:05;;;;;;;15.10;8.00;;;;;;;;;;5066785;28;20164;-67
2022/05/02 15:23:31;;;;;;;11.80;7.70;;;;;;;;;;5064808;28;20227;-67
2022/05/02 15:25:56;;;;;;;9.20;7.70;;;;;;;;;;5065525;28;20651;-67
2022/05/02 15:36:53;;;;;;;9.75;7.53;;;;;;;;;;5064480;28;20270;-68